createdAt,value
2018-11-02T00:01:00.179Z,97635.45
2018-11-02T00:03:27.924Z,97646.97
2018-11-02T00:05:55.648Z,97641.37
2018-11-02T00:08:23.336Z,97640.34
2018-11-02T00:10:51.014Z,97639.70
2018-11-02T00:13:18.773Z,97655.66
2018-11-02T00:15:46.500Z,97655.13
2018-11-02T00:18:14.254Z,97648.09
2018-11-02T00:20:41.971Z,97631.73
2018-11-02T00:23:09.653Z,97633.13
2018-11-02T00:25:37.474Z,97630.17
2018-11-02T00:28:05.279Z,97631.47
2018-11-02T00:30:32.966Z,97632.81
2018-11-02T00:33:00.734Z,97638.99
2018-11-02T00:35:28.477Z,97644.73
2018-11-02T00:37:56.136Z,97658.48
2018-11-02T00:40:23.902Z,97662.61
2018-11-02T00:42:51.542Z,97661.31
2018-11-02T00:45:19.240Z,97669.73
2018-11-02T00:47:46.973Z,97666.02
2018-11-02T00:50:14.634Z,97669.55
2018-11-02T00:52:42.364Z,97673.28
2018-11-02T00:55:10.871Z,97673.81
2018-11-02T00:57:38.611Z,97681.66
2018-11-02T01:00:08.063Z,97684.52
2018-11-02T01:02:35.747Z,97682.50
2018-11-02T01:05:03.953Z,97675.02
2018-11-02T01:07:31.638Z,97670.51
2018-11-02T01:09:59.364Z,97672.78
2018-11-02T01:12:27.092Z,97666.55
2018-11-02T01:14:54.826Z,97652.26
2018-11-02T01:17:22.477Z,97644.87
2018-11-02T01:19:50.187Z,97650.11
2018-11-02T01:22:17.889Z,97647.95
2018-11-02T01:24:45.573Z,97648.44
2018-11-02T01:27:13.317Z,97648.49
2018-11-02T01:29:41.060Z,97645.58
2018-11-02T01:32:08.820Z,97639.66
2018-11-02T01:34:36.522Z,97638.77
2018-11-02T01:37:04.223Z,97640.06
2018-11-02T01:39:31.925Z,97638.64
2018-11-02T01:42:00.523Z,97644.64
2018-11-02T01:44:28.237Z,97652.00
2018-11-02T01:46:55.979Z,97632.74
2018-11-02T01:49:23.646Z,97653.20
2018-11-02T01:51:51.353Z,97652.70
2018-11-02T01:54:19.085Z,97654.36
2018-11-02T01:56:46.797Z,97657.90
2018-11-02T01:59:14.529Z,97658.88
2018-11-02T02:01:42.208Z,97652.39
2018-11-02T02:04:09.926Z,97645.18
2018-11-02T02:06:37.586Z,97643.21
2018-11-02T02:09:07.275Z,97656.20
2018-11-02T02:11:34.983Z,97655.57
2018-11-02T02:14:02.717Z,97657.23
2018-11-02T02:16:30.336Z,97659.73
2018-11-02T02:18:58.086Z,97663.85
2018-11-02T02:21:25.773Z,97670.62
2018-11-02T02:23:53.488Z,97661.30
2018-11-02T02:26:21.140Z,97666.98
2018-11-02T02:28:48.848Z,97667.63
2018-11-02T02:31:16.635Z,97674.66
2018-11-02T02:33:44.315Z,97670.16
2018-11-02T02:36:12.074Z,97677.03
2018-11-02T02:38:39.831Z,97680.03
2018-11-02T02:41:07.523Z,97693.01
2018-11-02T02:43:35.193Z,97703.98
2018-11-02T02:46:03.023Z,97702.42
2018-11-02T02:48:30.753Z,97703.14
2018-11-02T02:50:58.519Z,97703.14
2018-11-02T02:53:26.293Z,97708.25
2018-11-02T02:55:54.075Z,97712.98
2018-11-02T02:58:21.848Z,97707.69
2018-11-02T03:00:49.708Z,97713.61
2018-11-02T03:03:17.406Z,97706.34
2018-11-02T03:05:45.270Z,97717.09
2018-11-02T03:08:13.055Z,97717.14
2018-11-02T03:10:40.850Z,97721.97
2018-11-02T03:13:08.502Z,97722.20
2018-11-02T03:15:36.267Z,97724.28
2018-11-02T03:18:03.981Z,97721.36
2018-11-02T03:20:31.745Z,97715.17
2018-11-02T03:22:59.554Z,97715.26
2018-11-02T03:25:27.250Z,97716.83
2018-11-02T03:27:54.966Z,97718.48
2018-11-02T03:30:22.741Z,97719.78
2018-11-02T03:32:50.413Z,97719.91
2018-11-02T03:35:18.166Z,97719.37
2018-11-02T03:37:45.833Z,97720.14
2018-11-02T03:40:13.511Z,97716.83
2018-11-02T03:42:41.651Z,97714.14
2018-11-02T03:45:09.375Z,97614.58
2018-11-02T03:47:37.084Z,97718.44
2018-11-02T03:50:05.398Z,97710.73
2018-11-02T03:52:33.074Z,97710.38
2018-11-02T03:55:00.797Z,97723.32
2018-11-02T03:57:28.495Z,97732.95
2018-11-02T03:59:56.153Z,97738.64
2018-11-02T04:02:23.801Z,97735.23
2018-11-02T04:04:51.500Z,97747.02
2018-11-02T04:07:19.213Z,97759.11
2018-11-02T04:09:47.047Z,97759.19
2018-11-02T04:12:14.609Z,97767.02
2018-11-02T04:14:42.262Z,97775.69
2018-11-02T04:17:09.965Z,97785.59
2018-11-02T04:19:37.666Z,97795.00
2018-11-02T04:22:05.381Z,97792.50
2018-11-02T04:24:33.110Z,97786.52
2018-11-02T04:27:00.783Z,97785.41
2018-11-02T04:29:28.473Z,97789.81
2018-11-02T04:31:56.165Z,97788.70
2018-11-02T04:34:23.854Z,97789.74
2018-11-02T04:36:51.633Z,97786.55
2018-11-02T04:39:19.320Z,97791.16
2018-11-02T04:41:46.992Z,97795.50
2018-11-02T04:44:14.649Z,97802.25
2018-11-02T04:46:42.405Z,97798.80
2018-11-02T04:49:10.249Z,97800.91
2018-11-02T04:51:38.420Z,97789.86
2018-11-02T04:54:06.171Z,97796.58
2018-11-02T04:56:33.963Z,97809.77
2018-11-02T04:59:01.747Z,97807.89
2018-11-02T05:01:29.646Z,97804.09
2018-11-02T05:03:57.603Z,97801.95
2018-11-02T05:06:25.411Z,97797.14
2018-11-02T05:08:53.253Z,97803.56
2018-11-02T05:11:21.066Z,97800.38
2018-11-02T05:13:48.934Z,97811.97
2018-11-02T05:16:23.136Z,97818.14
2018-11-02T05:18:50.897Z,97823.75
2018-11-02T05:21:18.758Z,97825.59
2018-11-02T05:23:46.545Z,97821.14
2018-11-02T05:26:14.436Z,97823.28
2018-11-02T05:28:48.755Z,97824.44
2018-11-02T05:31:16.512Z,97828.87
2018-11-02T05:33:45.143Z,97824.81
2018-11-02T05:36:12.924Z,97832.06
2018-11-02T05:45:42.343Z,97837.02
2018-11-02T05:48:10.152Z,97834.80
2018-11-02T05:50:38.012Z,97828.82
2018-11-02T05:53:05.854Z,97831.58
2018-11-02T05:55:33.685Z,97833.73
2018-11-02T05:58:01.470Z,97829.20
2018-11-02T06:00:29.344Z,97833.77
2018-11-02T06:02:57.183Z,97837.33
2018-11-02T06:05:24.942Z,97844.66
2018-11-02T06:07:52.855Z,97843.31
2018-11-02T06:10:20.686Z,97848.98
2018-11-02T06:12:48.622Z,97851.10
2018-11-02T06:15:16.403Z,97853.14
2018-11-02T06:17:44.128Z,97855.87
2018-11-02T06:20:12.004Z,97856.78
2018-11-02T06:22:40.768Z,97853.48
2018-11-02T06:25:08.743Z,97851.98
2018-11-02T06:27:36.918Z,97854.23
2018-11-02T06:30:05.192Z,97856.31
2018-11-02T06:32:33.152Z,97861.98
2018-11-02T06:35:01.009Z,97869.78
2018-11-02T06:37:28.870Z,97884.56
2018-11-02T06:39:56.713Z,97889.39
2018-11-02T06:42:26.664Z,97886.91
2018-11-02T06:44:54.576Z,97892.20
2018-11-02T06:47:22.417Z,97899.97
2018-11-02T06:49:50.305Z,97899.03
2018-11-02T06:52:18.540Z,97896.34
2018-11-02T06:54:53.026Z,97895.20
2018-11-02T06:57:22.044Z,97893.35
2018-11-02T06:59:50.238Z,97892.75
2018-11-02T07:02:18.028Z,97890.33
2018-11-02T07:04:45.986Z,97895.70
2018-11-02T07:07:14.063Z,97898.72
2018-11-02T07:09:41.951Z,97908.94
2018-11-02T07:12:09.857Z,97902.72
2018-11-02T07:14:37.799Z,97907.29
2018-11-02T07:17:05.741Z,97922.91
2018-11-02T07:19:33.496Z,97940.37
2018-11-02T07:22:01.203Z,97934.22
2018-11-02T07:24:28.904Z,97933.41
2018-11-02T07:26:56.621Z,97939.29
2018-11-02T07:29:24.311Z,97951.31
2018-11-02T07:31:51.953Z,97957.83
2018-11-02T07:34:19.645Z,97957.52
2018-11-02T07:36:47.306Z,97948.42
2018-11-02T07:39:15.060Z,97949.16
2018-11-02T07:41:42.707Z,97954.60
2018-11-02T07:44:10.441Z,97956.25
2018-11-02T07:46:38.522Z,97962.36
2018-11-02T07:49:06.218Z,97969.14
2018-11-02T07:51:33.904Z,97967.23
2018-11-02T07:54:01.557Z,97974.75
2018-11-02T07:56:29.233Z,97970.79
2018-11-02T07:58:56.920Z,97972.06
2018-11-02T08:01:24.579Z,97968.03
2018-11-02T08:03:52.250Z,97958.63
2018-11-02T08:06:19.902Z,97955.95
2018-11-02T08:08:47.752Z,97956.38
2018-11-02T08:11:15.461Z,97967.37
2018-11-02T08:13:43.303Z,97971.20
2018-11-02T08:16:10.963Z,97964.65
2018-11-02T08:18:38.638Z,97963.44
2018-11-02T08:21:06.282Z,97962.70
2018-11-02T08:23:33.929Z,97962.16
2018-11-02T08:26:01.602Z,97966.19
2018-11-02T08:28:29.309Z,97950.80
2018-11-02T08:30:56.961Z,97955.77
2018-11-02T08:33:24.599Z,97964.87
2018-11-02T08:35:52.242Z,97971.36
2018-11-02T08:38:19.906Z,97975.92
2018-11-02T08:40:47.545Z,97979.89
2018-11-02T08:43:15.185Z,97971.89
2018-11-02T08:45:42.834Z,97963.89
2018-11-02T08:48:10.480Z,97967.80
2018-11-02T08:50:38.114Z,97970.55
2018-11-02T08:53:05.793Z,97969.64
2018-11-02T08:55:33.449Z,97964.69
2018-11-02T08:58:01.246Z,97969.03
2018-11-02T09:00:28.734Z,97968.80
2018-11-02T09:02:56.381Z,97975.52
2018-11-02T09:05:24.033Z,97980.16
2018-11-02T09:07:51.681Z,97980.70
2018-11-02T09:10:19.345Z,97984.30
2018-11-02T09:12:46.997Z,97977.27
2018-11-02T09:15:14.646Z,97976.16
2018-11-02T09:17:42.290Z,97986.00
2018-11-02T09:20:09.942Z,97989.00
2018-11-02T09:22:37.602Z,98003.34
2018-11-02T09:25:06.224Z,98011.72
2018-11-02T09:27:33.996Z,98009.80
2018-11-02T09:30:01.591Z,98009.70
2018-11-02T09:32:29.240Z,97998.55
2018-11-02T09:34:56.880Z,97990.34
2018-11-02T09:37:24.522Z,97981.13
2018-11-02T09:39:52.202Z,97990.53
2018-11-02T09:42:19.862Z,97981.00
2018-11-02T09:44:47.531Z,97989.37
2018-11-02T09:47:15.202Z,97993.91
2018-11-02T09:49:42.870Z,97990.71
2018-11-02T09:52:10.716Z,97986.27
2018-11-02T09:54:38.291Z,97978.44
2018-11-02T09:57:06.010Z,97982.23
2018-11-02T09:59:33.710Z,97985.23
2018-11-02T10:02:01.491Z,97975.81
2018-11-02T10:04:29.104Z,97968.16
2018-11-02T10:06:56.760Z,97965.55
2018-11-02T10:09:24.431Z,97970.48
2018-11-02T10:11:52.076Z,97969.33
2018-11-02T10:14:19.708Z,97964.27
2018-11-02T10:16:47.418Z,97961.70
2018-11-02T10:19:15.154Z,97954.25
2018-11-02T10:21:42.801Z,97958.16
2018-11-02T10:24:10.529Z,97962.46
2018-11-02T10:26:38.173Z,97959.50
2018-11-02T10:29:06.259Z,97952.98
2018-11-02T10:31:33.920Z,97940.80
2018-11-02T10:34:01.582Z,97930.13
2018-11-02T10:36:29.224Z,97919.06
2018-11-02T10:38:57.104Z,97922.29
2018-11-02T10:41:26.653Z,97918.44
2018-11-02T10:43:54.347Z,97916.09
2018-11-02T10:46:22.038Z,97909.64
2018-11-02T10:48:49.696Z,97913.72
2018-11-02T10:51:17.393Z,97920.27
2018-11-02T10:53:45.039Z,97925.89
2018-11-02T10:56:12.693Z,97932.11
2018-11-02T10:58:40.342Z,97940.17
2018-11-02T11:01:13.301Z,97933.22
2018-11-02T11:03:40.951Z,97928.14
2018-11-02T11:06:08.618Z,97928.14
2018-11-02T11:08:36.281Z,97925.99
2018-11-02T11:11:04.003Z,97921.85
2018-11-02T11:13:31.998Z,97931.77
2018-11-02T11:15:59.335Z,97931.80
2018-11-02T11:18:26.988Z,97919.16
2018-11-02T11:20:54.658Z,97920.81
2018-11-02T11:23:22.370Z,97919.27
2018-11-02T11:25:50.028Z,97914.16
2018-11-02T11:28:17.673Z,97909.02
2018-11-02T11:30:45.338Z,97923.50
2018-11-02T11:33:13.016Z,97911.41
2018-11-02T11:35:40.702Z,97914.89
2018-11-02T11:38:08.454Z,97917.09
2018-11-02T11:40:36.114Z,97915.13
2018-11-02T11:43:03.925Z,97922.46
2018-11-02T11:45:31.717Z,97919.54
2018-11-02T11:47:59.484Z,97913.90
2018-11-02T11:50:27.185Z,97928.64
2018-11-02T11:52:55.401Z,97929.98
2018-11-02T11:55:23.149Z,97920.08
2018-11-02T11:57:52.005Z,97912.55
2018-11-02T12:00:21.169Z,97896.92
2018-11-02T12:02:49.593Z,97893.70
2018-11-02T12:05:20.480Z,97900.53
2018-11-02T12:07:48.203Z,97907.48
2018-11-02T12:10:17.854Z,97910.74
2018-11-02T12:12:45.641Z,97908.89
2018-11-02T12:15:14.941Z,97910.48
2018-11-02T12:17:43.527Z,97911.89
2018-11-02T12:20:12.981Z,97901.44
2018-11-02T12:22:41.080Z,97879.39
2018-11-02T12:25:10.146Z,97902.29
2018-11-02T12:27:38.490Z,97909.14
2018-11-02T12:30:07.574Z,97917.38
2018-11-02T12:32:35.346Z,97921.98
2018-11-02T12:35:03.114Z,97916.71
2018-11-02T12:37:30.853Z,97913.17
2018-11-02T12:39:58.509Z,97897.83
2018-11-02T12:42:26.447Z,97903.20
2018-11-02T12:44:54.277Z,97892.41
2018-11-02T12:47:21.934Z,97898.26
2018-11-02T12:49:49.930Z,97898.52
2018-11-02T12:52:17.244Z,97891.38
2018-11-02T12:54:44.912Z,97898.98
2018-11-02T12:57:12.561Z,97899.48
2018-11-02T12:59:40.220Z,97891.62
2018-11-02T13:02:07.994Z,97878.79
2018-11-02T13:04:35.645Z,97876.41
2018-11-02T13:07:03.339Z,97890.08
2018-11-02T13:09:31.110Z,97902.12
2018-11-02T13:11:58.706Z,97900.52
2018-11-02T13:14:26.366Z,97904.31
2018-11-02T13:16:54.019Z,97902.29
2018-11-02T13:19:21.669Z,97905.05
2018-11-02T13:21:49.405Z,97903.90
2018-11-02T13:24:17.273Z,97913.30
2018-11-02T13:26:44.934Z,97911.03
2018-11-02T13:29:12.597Z,97911.91
2018-11-02T13:31:40.279Z,97902.23
2018-11-02T13:34:07.958Z,97902.90
2018-11-02T13:36:35.874Z,97904.23
2018-11-02T13:39:03.442Z,97909.38
2018-11-02T13:41:31.110Z,97912.37
2018-11-02T13:43:58.766Z,97918.63
2018-11-02T13:46:27.942Z,97920.44
2018-11-02T13:48:55.585Z,97925.08
2018-11-02T13:51:23.320Z,97929.84
2018-11-02T13:53:51.005Z,97937.37
2018-11-02T13:56:18.671Z,97936.80
2018-11-02T13:58:46.327Z,97938.84
2018-11-02T14:01:14.015Z,97946.70
2018-11-02T14:03:41.634Z,97949.16
2018-11-02T14:06:09.414Z,97947.88
2018-11-02T14:08:37.062Z,97952.15
2018-11-02T14:11:04.754Z,97956.42
2018-11-02T14:13:32.413Z,97960.28
2018-11-02T14:16:00.074Z,97964.31
2018-11-02T14:18:27.771Z,97957.02
2018-11-02T14:20:55.390Z,97949.88
2018-11-02T14:23:23.082Z,97950.67
2018-11-02T14:25:50.759Z,97941.88
2018-11-02T14:28:18.411Z,97937.61
2018-11-02T14:30:46.065Z,97940.84
2018-11-02T14:33:13.752Z,97955.20
2018-11-02T14:35:41.404Z,97954.91
2018-11-02T14:38:09.061Z,97949.83
2018-11-02T14:40:36.794Z,97948.29
2018-11-02T14:43:04.761Z,97952.69
2018-11-02T14:45:32.429Z,97953.26
2018-11-02T14:48:00.078Z,97862.27
2018-11-02T14:50:27.847Z,97954.09
2018-11-02T14:52:55.502Z,97948.22
2018-11-02T14:55:23.166Z,97933.95
2018-11-02T14:57:50.829Z,97935.05
2018-11-02T15:00:18.470Z,97929.91
2018-11-02T15:02:46.104Z,97935.36
2018-11-02T15:05:14.210Z,97936.13
2018-11-02T15:07:42.601Z,97939.14
2018-11-02T15:10:10.301Z,97932.77
2018-11-02T15:12:38.533Z,97925.95
2018-11-02T15:15:06.412Z,97926.98
2018-11-02T15:17:34.065Z,97934.31
2018-11-02T15:20:01.697Z,97938.34
2018-11-02T15:22:29.422Z,97943.42
2018-11-02T15:26:54.203Z,97955.68
2018-11-02T15:29:21.905Z,97959.23
2018-11-02T15:31:49.600Z,97971.44
2018-11-02T15:34:17.242Z,97973.52
2018-11-02T15:36:44.897Z,97985.23
2018-11-02T15:39:13.109Z,97983.83
2018-11-02T15:41:41.168Z,97994.78
2018-11-02T15:44:08.916Z,97999.34
2018-11-02T15:46:36.592Z,98006.44
2018-11-02T15:49:04.609Z,98009.96
2018-11-02T15:51:32.281Z,98018.70
2018-11-02T15:53:59.939Z,98030.02
2018-11-02T15:56:27.605Z,98026.22
2018-11-02T15:58:55.424Z,98035.09
2018-11-02T16:01:23.098Z,98037.88
2018-11-02T16:03:50.755Z,98042.34
2018-11-02T16:06:18.451Z,98041.54
2018-11-02T16:08:46.112Z,98048.56
2018-11-02T16:11:13.749Z,98051.81
2018-11-02T16:13:41.418Z,98063.91
2018-11-02T16:16:09.076Z,98078.13
2018-11-02T16:18:36.749Z,98080.63
2018-11-02T16:21:04.369Z,98086.48
2018-11-02T16:23:32.000Z,98096.16
2018-11-02T16:25:59.653Z,98101.56
2018-11-02T16:28:27.305Z,98100.48
2018-11-02T16:30:54.966Z,98104.25
2018-11-02T16:33:22.606Z,98108.55
2018-11-02T16:35:50.253Z,98109.30
2018-11-02T16:38:17.908Z,98109.89
2018-11-02T16:40:45.602Z,98111.53
2018-11-02T16:43:13.250Z,98111.77
2018-11-02T16:45:40.914Z,98114.25
2018-11-02T16:48:08.639Z,98126.05
2018-11-02T16:50:42.331Z,98128.05
2018-11-02T16:53:10.002Z,98145.60
2018-11-02T16:55:37.667Z,98147.45
2018-11-02T16:58:05.430Z,98153.12
2018-11-02T17:00:33.035Z,98153.66
2018-11-02T17:03:00.688Z,98163.37
2018-11-02T17:05:28.357Z,98160.98
2018-11-02T17:07:56.017Z,98154.98
2018-11-02T17:10:23.656Z,98150.44
2018-11-02T17:12:51.345Z,98152.53
2018-11-02T17:15:18.983Z,98150.95
2018-11-02T17:17:46.628Z,98141.25
2018-11-02T17:20:16.636Z,98148.50
2018-11-02T17:22:44.294Z,98148.56
2018-11-02T17:25:12.517Z,98142.38
2018-11-02T17:27:40.379Z,98135.45
2018-11-02T17:30:10.804Z,98135.42
2018-11-02T17:32:38.477Z,98132.38
2018-11-02T17:35:06.195Z,98146.27
2018-11-02T17:37:33.864Z,98137.36
2018-11-02T17:40:01.519Z,98138.50
2018-11-02T17:42:29.174Z,98145.73
2018-11-02T17:44:57.394Z,98152.23
2018-11-02T17:47:25.044Z,98151.70
2018-11-02T17:49:53.375Z,98155.73
2018-11-02T17:52:21.023Z,98151.42
2018-11-02T17:54:48.722Z,98158.12
2018-11-02T17:57:16.373Z,98157.09
2018-11-02T17:59:44.004Z,98150.08
2018-11-02T18:02:11.673Z,98149.25
2018-11-02T18:04:39.333Z,98151.19
2018-11-02T18:07:07.050Z,98155.87
2018-11-02T18:09:34.692Z,98157.99
2018-11-02T18:12:02.451Z,98154.61
2018-11-02T18:14:30.180Z,98159.45
2018-11-02T18:16:57.808Z,98168.50
2018-11-02T18:19:25.482Z,98175.97
2018-11-02T18:21:53.463Z,98179.70
2018-11-02T18:24:21.189Z,98180.54
2018-11-02T18:26:48.788Z,98184.39
2018-11-02T18:29:16.453Z,98180.89
2018-11-02T18:31:44.097Z,98177.91
2018-11-02T18:34:11.744Z,98176.51
2018-11-02T18:36:39.413Z,98175.97
2018-11-02T18:39:09.473Z,98180.06
2018-11-02T18:41:37.118Z,98177.70
2018-11-02T18:44:05.004Z,98177.55
2018-11-02T18:46:32.663Z,98168.27
2018-11-02T18:49:00.305Z,98180.30
2018-11-02T18:51:27.970Z,98177.84
2018-11-02T18:53:55.610Z,98185.91
2018-11-02T18:56:23.246Z,98188.95
2018-11-02T18:58:50.961Z,98196.13
2018-11-02T19:01:18.613Z,98201.94
2018-11-02T19:03:46.268Z,98208.87
2018-11-02T19:06:13.913Z,98205.38
2018-11-02T19:08:41.565Z,98212.60
2018-11-02T19:11:09.222Z,98200.21
2018-11-02T19:13:36.884Z,98199.41
2018-11-02T19:16:05.206Z,98199.41
2018-11-02T19:18:32.872Z,98199.64
2018-11-02T19:21:00.538Z,98193.23
2018-11-02T19:23:28.205Z,98194.86
2018-11-02T19:25:55.888Z,98193.81
2018-11-02T19:28:23.530Z,98185.22
2018-11-02T19:30:51.184Z,98184.47
2018-11-02T19:33:18.834Z,98182.77
2018-11-02T19:35:46.498Z,98184.92
2018-11-02T19:38:14.404Z,98185.81
2018-11-02T19:40:41.841Z,98189.90
2018-11-02T19:43:09.499Z,98192.88
2018-11-02T19:45:37.129Z,98196.34
2018-11-02T19:48:05.558Z,98199.30
2018-11-02T19:50:33.362Z,98195.56
2018-11-02T19:53:00.949Z,98197.91
2018-11-02T19:55:28.660Z,98201.87
2018-11-02T19:57:56.286Z,98210.45
2018-11-02T20:00:23.937Z,98219.05
2018-11-02T20:02:51.594Z,98226.58
2018-11-02T20:05:20.074Z,98232.78
2018-11-02T20:07:47.705Z,98237.16
2018-11-02T20:10:16.107Z,98234.98
2018-11-02T20:12:44.180Z,98225.58
2018-11-02T20:15:12.765Z,98222.33
2018-11-02T20:17:40.702Z,98219.91
2018-11-02T20:20:08.849Z,98223.43
2018-11-02T20:22:36.776Z,98235.23
2018-11-02T20:25:04.524Z,98232.84
2018-11-02T20:27:32.177Z,98227.11
2018-11-02T20:29:59.849Z,98241.41
2018-11-02T20:32:27.581Z,98242.19
2018-11-02T20:34:55.186Z,98240.84
2018-11-02T20:37:22.835Z,98232.32
2018-11-02T20:39:50.479Z,98234.98
2018-11-02T20:42:18.114Z,98240.06
2018-11-02T20:44:45.770Z,98235.28
2018-11-02T20:47:13.425Z,98244.17
2018-11-02T20:49:41.079Z,98240.67
2018-11-02T20:52:08.754Z,98243.34
2018-11-02T20:54:36.410Z,98236.64
2018-11-02T20:57:04.065Z,98237.99
2018-11-02T20:59:31.737Z,98243.07
2018-11-02T21:01:59.399Z,98245.27
2018-11-02T21:04:27.047Z,98239.14
2018-11-02T21:06:54.772Z,98227.54
2018-11-02T21:09:22.630Z,98229.85
2018-11-02T21:11:50.099Z,98231.78
2018-11-02T21:14:17.819Z,98235.58
2018-11-02T21:16:45.446Z,98243.64
2018-11-02T21:19:13.076Z,98245.27
2018-11-02T21:21:40.722Z,98244.12
2018-11-02T21:24:08.366Z,98236.57
2018-11-02T21:26:36.006Z,98240.20
2018-11-02T21:29:03.719Z,98249.55
2018-11-02T21:31:31.300Z,98257.39
2018-11-02T21:33:59.010Z,98255.80
2018-11-02T21:36:26.581Z,98261.13
2018-11-02T21:38:54.396Z,98265.72
2018-11-02T21:41:21.926Z,98269.00
2018-11-02T21:43:49.842Z,98267.14
2018-11-02T21:46:17.519Z,98272.97
2018-11-02T21:48:45.178Z,98273.09
2018-11-02T21:51:12.821Z,98282.67
2018-11-02T21:53:40.463Z,98279.77
2018-11-02T21:56:08.138Z,98272.27
2018-11-02T21:58:35.872Z,98269.29
2018-11-02T22:01:03.455Z,98266.66
2018-11-02T22:03:31.122Z,98275.59
2018-11-02T22:05:58.869Z,98274.20
2018-11-02T22:08:26.440Z,98277.98
2018-11-02T22:10:54.080Z,98279.81
2018-11-02T22:13:21.729Z,98273.73
2018-11-02T22:15:49.410Z,98274.55
2018-11-02T22:18:17.064Z,98277.23
2018-11-02T22:20:44.717Z,98271.00
2018-11-02T22:23:12.375Z,98271.46
2018-11-02T22:25:40.051Z,98277.18
2018-11-02T22:28:07.697Z,98276.94
2018-11-02T22:30:35.366Z,98277.98
2018-11-02T22:33:03.033Z,98275.61
2018-11-02T22:35:30.678Z,98277.77
2018-11-02T22:37:58.321Z,98283.36
2018-11-02T22:40:25.978Z,98281.72
2018-11-02T22:42:53.687Z,98284.77
2018-11-02T22:45:21.324Z,98291.66
2018-11-02T22:47:54.421Z,98292.59
2018-11-02T22:50:22.096Z,98294.98
2018-11-02T22:52:49.721Z,98285.29
2018-11-02T22:55:17.374Z,98270.52
2018-11-02T22:57:45.035Z,98267.55
2018-11-02T23:00:15.254Z,98266.43
2018-11-02T23:02:43.326Z,98265.97
2018-11-02T23:05:11.053Z,98276.13
2018-11-02T23:07:38.706Z,98282.38
2018-11-02T23:10:06.707Z,98286.80
2018-11-02T23:12:34.612Z,98285.02
2018-11-02T23:15:02.234Z,98296.33
2018-11-02T23:17:29.873Z,98302.75
2018-11-02T23:19:57.506Z,98309.19
2018-11-02T23:22:25.441Z,98307.83
2018-11-02T23:24:53.094Z,98307.66
2018-11-02T23:27:20.741Z,98305.50
2018-11-02T23:29:48.866Z,98302.28
2018-11-02T23:32:16.517Z,98298.25
2018-11-02T23:34:44.169Z,98296.64
2018-11-02T23:37:11.817Z,98289.92
2018-11-02T23:39:39.561Z,98290.48
2018-11-02T23:42:07.276Z,98289.97
2018-11-02T23:44:35.006Z,98289.14
2018-11-02T23:47:02.665Z,98283.02
2018-11-02T23:49:30.337Z,98276.55
2018-11-02T23:51:58.058Z,98279.98
2018-11-02T23:54:25.740Z,98283.03
2018-11-02T23:56:53.396Z,98280.08
2018-11-02T23:59:21.081Z,98279.84
